createdAt,value
2019-05-10T00:01:32.409Z,99.90
2019-05-10T00:04:19.512Z,99.90
2019-05-10T00:07:06.240Z,99.90
2019-05-10T00:09:34.313Z,99.90
2019-05-10T00:12:15.761Z,99.90
2019-05-10T00:14:45.824Z,99.90
2019-05-10T00:17:16.429Z,99.90
2019-05-10T00:19:45.193Z,99.90
2019-05-10T00:22:15.529Z,99.90
2019-05-10T00:24:44.285Z,99.90
2019-05-10T00:27:13.027Z,99.90
2019-05-10T00:29:41.753Z,99.90
2019-05-10T00:32:10.581Z,99.90
2019-05-10T00:34:39.413Z,99.90
2019-05-10T00:37:08.160Z,99.90
2019-05-10T00:39:36.884Z,99.90
2019-05-10T00:42:05.750Z,99.90
2019-05-10T00:44:34.490Z,99.90
2019-05-10T00:47:03.287Z,99.90
2019-05-10T00:49:32.049Z,99.90
2019-05-10T00:52:01.479Z,99.90
2019-05-10T00:54:30.190Z,99.90
2019-05-10T00:56:58.961Z,99.90
2019-05-10T00:59:27.693Z,99.90
2019-05-10T01:01:56.578Z,99.90
2019-05-10T01:04:25.351Z,99.90
2019-05-10T01:06:56.350Z,99.90
2019-05-10T01:09:24.493Z,99.90
2019-05-10T01:11:53.218Z,99.90
2019-05-10T01:14:21.953Z,99.90
2019-05-10T01:16:50.800Z,99.90
2019-05-10T01:19:19.518Z,99.90
2019-05-10T01:21:48.328Z,99.90
2019-05-10T01:24:18.062Z,99.90
2019-05-10T01:26:46.717Z,99.90
2019-05-10T01:29:15.439Z,99.90
2019-05-10T01:31:44.302Z,99.90
2019-05-10T01:34:14.420Z,99.90
2019-05-10T01:36:43.124Z,99.90
2019-05-10T01:39:11.896Z,99.90
2019-05-10T01:41:40.675Z,99.90
2019-05-10T01:44:09.403Z,99.90
2019-05-10T01:46:38.217Z,99.90
2019-05-10T01:49:06.958Z,99.90
2019-05-10T01:51:35.753Z,99.90
2019-05-10T01:54:04.517Z,99.90
2019-05-10T01:56:33.239Z,99.90
2019-05-10T01:59:01.977Z,99.90
2019-05-10T02:01:30.850Z,99.90
2019-05-10T02:03:59.526Z,99.90
2019-05-10T02:06:28.357Z,99.90
2019-05-10T02:08:57.120Z,99.90
2019-05-10T02:11:25.841Z,99.90
2019-05-10T02:13:54.651Z,99.90
2019-05-10T02:16:23.406Z,99.90
2019-05-10T02:18:52.236Z,99.90
2019-05-10T02:21:21.044Z,99.90
2019-05-10T02:23:49.812Z,99.90
2019-05-10T02:26:20.387Z,99.90
2019-05-10T02:28:49.101Z,99.90
2019-05-10T02:31:21.443Z,99.90
2019-05-10T02:33:48.327Z,99.90
2019-05-10T02:36:17.060Z,99.90
2019-05-10T02:38:47.070Z,99.90
2019-05-10T02:41:15.747Z,99.90
2019-05-10T02:43:44.560Z,99.90
2019-05-10T02:46:13.271Z,99.90
2019-05-10T02:48:42.191Z,99.90
2019-05-10T02:51:10.936Z,99.90
2019-05-10T02:53:39.962Z,99.90
2019-05-10T02:56:27.837Z,99.90
2019-05-10T02:58:39.751Z,99.90
2019-05-10T03:01:09.916Z,99.90
2019-05-10T03:03:40.525Z,99.90
2019-05-10T03:06:09.252Z,99.90
2019-05-10T03:08:49.647Z,99.90
2019-05-10T03:11:19.145Z,99.90
2019-05-10T03:13:50.168Z,99.90
2019-05-10T03:16:25.057Z,99.90
2019-05-10T03:18:53.873Z,99.90
2019-05-10T03:21:24.845Z,99.90
2019-05-10T03:23:53.671Z,99.90
2019-05-10T03:26:22.592Z,99.90
2019-05-10T03:28:51.389Z,99.90
2019-05-10T03:31:20.280Z,99.90
2019-05-10T03:33:55.774Z,99.90
2019-05-10T03:36:19.492Z,99.90
2019-05-10T03:38:48.445Z,99.90
2019-05-10T03:41:17.461Z,99.90
2019-05-10T03:43:46.212Z,99.90
2019-05-10T03:46:15.021Z,99.90
2019-05-10T03:48:43.780Z,99.90
2019-05-10T03:51:12.767Z,99.90
2019-05-10T03:53:41.502Z,99.90
2019-05-10T03:56:10.259Z,99.90
2019-05-10T03:58:39.064Z,99.90
2019-05-10T04:01:07.868Z,99.90
2019-05-10T04:03:36.625Z,99.90
2019-05-10T04:06:05.447Z,99.90
2019-05-10T04:08:34.182Z,99.90
2019-05-10T04:11:02.922Z,99.90
2019-05-10T04:13:31.678Z,99.90
2019-05-10T04:16:00.408Z,99.90
2019-05-10T04:18:29.268Z,99.90
2019-05-10T04:20:58.009Z,99.90
2019-05-10T04:23:26.813Z,99.90
2019-05-10T04:25:55.636Z,99.90
2019-05-10T04:28:24.927Z,99.90
2019-05-10T04:30:55.185Z,99.90
2019-05-10T04:33:23.949Z,99.90
2019-05-10T04:35:52.686Z,99.90
2019-05-10T04:38:21.413Z,99.90
2019-05-10T04:40:50.204Z,99.90
2019-05-10T04:43:18.932Z,99.90
2019-05-10T04:45:47.670Z,99.90
2019-05-10T04:48:16.428Z,99.90
2019-05-10T04:50:48.851Z,99.90
2019-05-10T04:53:15.539Z,99.90
2019-05-10T04:55:47.018Z,99.90
2019-05-10T04:58:15.781Z,99.90
2019-05-10T05:00:44.579Z,99.90
2019-05-10T05:03:13.395Z,99.90
2019-05-10T05:05:42.216Z,99.90
2019-05-10T05:08:10.935Z,99.90
2019-05-10T05:10:39.687Z,99.90
2019-05-10T05:13:08.416Z,99.90
2019-05-10T05:15:37.174Z,99.90
2019-05-10T05:18:05.999Z,99.90
2019-05-10T05:20:34.729Z,99.90
2019-05-10T05:23:03.554Z,99.90
2019-05-10T05:25:35.241Z,99.90
2019-05-10T05:28:07.863Z,99.90
2019-05-10T05:30:33.206Z,99.90
2019-05-10T05:33:01.939Z,99.90
2019-05-10T05:35:30.742Z,99.90
2019-05-10T05:37:59.516Z,99.90
2019-05-10T05:40:28.232Z,99.90
2019-05-10T05:42:56.944Z,99.90
2019-05-10T05:45:28.250Z,99.90
2019-05-10T05:47:56.213Z,99.90
2019-05-10T05:50:24.921Z,99.90
2019-05-10T05:52:54.037Z,99.90
2019-05-10T05:55:23.365Z,99.90
2019-05-10T05:57:52.220Z,99.90
2019-05-10T06:00:21.045Z,99.90
2019-05-10T06:02:49.805Z,99.90
2019-05-10T06:05:32.582Z,99.90
2019-05-10T06:07:52.149Z,99.90
2019-05-10T06:10:19.853Z,99.90
2019-05-10T06:12:52.714Z,99.90
2019-05-10T06:15:23.111Z,99.90
2019-05-10T06:17:56.494Z,99.90
2019-05-10T06:20:21.331Z,99.90
2019-05-10T06:23:05.864Z,99.90
2019-05-10T06:25:37.599Z,99.90
2019-05-10T06:27:50.889Z,99.90
2019-05-10T06:30:19.834Z,99.90
2019-05-10T06:32:53.465Z,99.90
2019-05-10T06:35:19.562Z,99.90
2019-05-10T06:37:49.627Z,99.90
2019-05-10T06:40:25.667Z,99.90
2019-05-10T06:42:48.823Z,99.90
2019-05-10T06:45:17.744Z,99.90
2019-05-10T06:47:47.895Z,99.90
2019-05-10T06:50:17.241Z,99.90
2019-05-10T06:52:46.169Z,99.90
2019-05-10T06:55:15.171Z,99.90
2019-05-10T06:57:43.915Z,99.90
2019-05-10T07:00:13.235Z,99.90
2019-05-10T07:02:43.127Z,99.90
2019-05-10T07:05:11.921Z,99.90
2019-05-10T07:07:44.552Z,99.90
2019-05-10T07:10:18.744Z,99.90
2019-05-10T07:12:41.853Z,99.90
2019-05-10T07:15:11.082Z,99.90
2019-05-10T07:17:45.234Z,99.90
2019-05-10T07:20:10.649Z,99.90
2019-05-10T07:22:39.393Z,99.90
2019-05-10T07:25:08.451Z,99.90
2019-05-10T07:27:38.745Z,99.90
2019-05-10T07:30:07.987Z,99.90
2019-05-10T07:32:37.641Z,99.90
2019-05-10T07:35:06.995Z,99.90
2019-05-10T07:37:35.836Z,99.90
2019-05-10T07:40:06.950Z,99.90
2019-05-10T07:42:39.848Z,99.90
2019-05-10T07:45:09.371Z,99.90
2019-05-10T07:47:38.111Z,99.90
2019-05-10T07:50:09.938Z,99.90
2019-05-10T07:52:43.467Z,99.90
2019-05-10T07:55:10.515Z,99.90
2019-05-10T07:57:39.131Z,99.90
2019-05-10T08:00:08.243Z,99.90
2019-05-10T08:02:36.996Z,99.90
2019-05-10T08:05:10.929Z,99.90
2019-05-10T08:07:38.705Z,99.90
2019-05-10T08:10:09.076Z,99.90
2019-05-10T08:12:41.329Z,99.90
2019-05-10T08:15:09.943Z,99.90
2019-05-10T08:17:41.067Z,99.90
2019-05-10T08:20:25.693Z,99.60
2019-05-10T08:22:44.439Z,99.90
2019-05-10T08:25:12.618Z,99.90
2019-05-10T08:27:50.050Z,99.90
2019-05-10T08:30:26.305Z,99.90
2019-05-10T08:32:43.049Z,99.90
2019-05-10T08:35:16.974Z,99.90
2019-05-10T08:37:43.367Z,99.70
2019-05-10T08:40:12.915Z,99.90
2019-05-10T08:42:48.015Z,99.70
2019-05-10T08:45:12.677Z,99.90
2019-05-10T08:47:42.687Z,99.20
2019-05-10T08:50:28.816Z,98.90
2019-05-10T08:52:42.644Z,98.70
2019-05-10T08:55:12.335Z,98.80
2019-05-10T08:57:44.360Z,98.30
2019-05-10T09:00:13.062Z,98.10
2019-05-10T09:02:42.752Z,98.60
2019-05-10T09:05:12.458Z,98.80
2019-05-10T09:07:43.065Z,98.80
2019-05-10T09:10:13.031Z,99.00
2019-05-10T09:12:51.030Z,97.90
2019-05-10T09:15:13.565Z,98.00
2019-05-10T09:17:42.905Z,98.10
2019-05-10T09:20:20.843Z,97.70
2019-05-10T09:22:42.726Z,97.40
2019-05-10T09:25:12.803Z,96.90
2019-05-10T09:27:43.263Z,96.70
2019-05-10T09:30:14.048Z,96.40
2019-05-10T09:32:43.618Z,96.70
2019-05-10T09:35:12.951Z,96.50
2019-05-10T09:37:42.266Z,95.90
2019-05-10T09:40:13.157Z,96.10
2019-05-10T09:42:43.498Z,96.20
2019-05-10T09:45:13.063Z,95.10
2019-05-10T09:47:43.470Z,95.40
2019-05-10T09:50:12.943Z,93.60
2019-05-10T09:52:41.731Z,93.50
2019-05-10T09:55:14.853Z,94.10
2019-05-10T09:57:41.271Z,94.20
2019-05-10T10:00:11.005Z,94.50
2019-05-10T10:02:40.648Z,94.90
2019-05-10T10:05:09.914Z,94.40
2019-05-10T10:07:38.737Z,93.90
2019-05-10T10:10:12.837Z,94.00
2019-05-10T10:12:39.088Z,94.10
2019-05-10T10:15:10.716Z,94.00
2019-05-10T10:17:42.223Z,93.50
2019-05-10T10:20:09.034Z,94.00
2019-05-10T10:22:38.300Z,92.90
2019-05-10T10:25:07.630Z,94.80
2019-05-10T10:27:39.519Z,95.60
2019-05-10T10:30:12.703Z,95.70
2019-05-10T10:32:39.782Z,95.70
2019-05-10T10:35:13.219Z,95.90
2019-05-10T10:37:41.660Z,95.70
2019-05-10T10:40:10.500Z,95.10
2019-05-10T10:42:40.281Z,94.30
2019-05-10T10:45:10.790Z,94.00
2019-05-10T10:47:39.597Z,95.90
2019-05-10T10:50:13.520Z,95.20
2019-05-10T10:52:39.983Z,94.20
2019-05-10T10:55:13.346Z,94.90
2019-05-10T10:57:40.534Z,95.80
2019-05-10T11:00:11.389Z,96.50
2019-05-10T11:02:41.717Z,95.50
2019-05-10T11:05:11.566Z,95.60
2019-05-10T11:07:44.294Z,95.50
2019-05-10T11:10:17.955Z,95.50
2019-05-10T11:12:41.576Z,95.50
2019-05-10T11:15:11.475Z,96.50
2019-05-10T11:17:40.857Z,96.50
2019-05-10T11:20:11.592Z,96.40
2019-05-10T11:22:41.976Z,96.20
2019-05-10T11:25:12.899Z,95.50
2019-05-10T11:27:41.861Z,94.80
2019-05-10T11:30:12.174Z,95.50
2019-05-10T11:32:41.803Z,94.90
2019-05-10T11:35:12.061Z,96.90
2019-05-10T11:37:45.419Z,95.90
2019-05-10T11:40:12.770Z,94.60
2019-05-10T11:42:47.269Z,95.00
2019-05-10T11:45:14.291Z,94.40
2019-05-10T11:47:43.022Z,94.10
2019-05-10T11:50:26.586Z,95.10
2019-05-10T11:52:42.725Z,93.30
2019-05-10T11:55:11.791Z,93.00
2019-05-10T11:57:44.193Z,94.10
2019-05-10T12:00:24.293Z,94.30
2019-05-10T12:03:01.063Z,94.80
2019-05-10T12:07:45.990Z,96.20
2019-05-10T12:10:20.637Z,95.70
2019-05-10T12:13:00.566Z,95.90
2019-05-10T12:15:15.324Z,95.50
2019-05-10T12:17:46.912Z,95.90
2019-05-10T12:20:16.751Z,94.90
2019-05-10T12:22:47.531Z,94.80
2019-05-10T12:25:36.030Z,94.90
2019-05-10T12:26:17.832Z,94.80
2019-05-10T12:27:49.183Z,95.10
2019-05-10T12:30:17.515Z,95.10
2019-05-10T12:32:55.665Z,94.00
2019-05-10T12:35:16.655Z,94.40
2019-05-10T12:37:51.373Z,94.80
2019-05-10T12:40:15.794Z,94.70
2019-05-10T12:42:46.866Z,95.00
2019-05-10T12:45:15.878Z,94.80
2019-05-10T12:47:44.633Z,94.70
2019-05-10T12:50:13.759Z,94.60
2019-05-10T12:52:43.293Z,94.50
2019-05-10T12:55:12.372Z,94.50
2019-05-10T12:57:43.414Z,95.00
2019-05-10T13:00:15.569Z,94.10
2019-05-10T13:02:44.860Z,94.00
2019-05-10T13:05:15.536Z,94.10
2019-05-10T13:07:44.300Z,94.10
2019-05-10T13:10:13.568Z,94.20
2019-05-10T13:12:45.200Z,93.90
2019-05-10T13:15:13.623Z,93.90
2019-05-10T13:17:50.632Z,93.40
2019-05-10T13:20:14.225Z,93.70
2019-05-10T13:22:42.975Z,93.40
2019-05-10T13:25:11.723Z,92.70
2019-05-10T13:27:40.442Z,92.80
2019-05-10T13:30:10.485Z,92.50
2019-05-10T13:32:39.245Z,92.50
2019-05-10T13:35:09.081Z,92.00
2019-05-10T13:37:37.919Z,92.50
2019-05-10T13:40:08.101Z,92.10
2019-05-10T13:42:43.203Z,92.30
2019-05-10T13:45:09.509Z,92.10
2019-05-10T13:47:38.268Z,92.20
2019-05-10T13:50:07.662Z,92.70
2019-05-10T13:52:40.825Z,92.70
2019-05-10T13:55:07.460Z,92.40
2019-05-10T13:57:36.251Z,92.60
2019-05-10T14:00:09.533Z,92.90
2019-05-10T14:02:38.364Z,92.70
2019-05-10T14:05:11.814Z,92.60
2019-05-10T14:07:38.034Z,92.70
2019-05-10T14:10:07.152Z,92.60
2019-05-10T14:12:35.919Z,92.30
2019-05-10T14:15:12.826Z,92.60
2019-05-10T14:17:36.887Z,92.60
2019-05-10T14:20:19.346Z,92.30
2019-05-10T14:22:38.126Z,92.80
2019-05-10T14:25:07.943Z,92.30
2019-05-10T14:27:38.612Z,91.90
2019-05-10T14:30:13.682Z,91.90
2019-05-10T14:32:38.729Z,92.40
2019-05-10T14:35:07.979Z,92.30
2019-05-10T14:37:36.733Z,92.80
2019-05-10T14:40:06.997Z,92.40
2019-05-10T14:42:35.805Z,91.60
2019-05-10T14:45:05.774Z,92.10
2019-05-10T14:47:46.343Z,92.00
2019-05-10T14:50:06.464Z,92.80
2019-05-10T14:52:35.251Z,91.70
2019-05-10T14:55:06.482Z,91.70
2019-05-10T14:57:35.206Z,91.10
2019-05-10T15:00:08.321Z,92.50
2019-05-10T15:02:37.049Z,90.70
2019-05-10T15:05:15.464Z,91.00
2019-05-10T15:07:39.904Z,91.10
2019-05-10T15:10:09.099Z,90.60
2019-05-10T15:12:39.921Z,90.70
2019-05-10T15:15:09.275Z,90.50
2019-05-10T15:17:38.084Z,90.40
2019-05-10T15:20:07.493Z,90.30
2019-05-10T15:22:36.265Z,89.80
2019-05-10T15:25:06.312Z,89.50
2019-05-10T15:27:35.121Z,89.40
2019-05-10T15:30:08.136Z,89.80
2019-05-10T15:32:37.085Z,90.60
2019-05-10T15:35:08.387Z,89.90
2019-05-10T15:37:41.029Z,89.90
2019-05-10T15:40:08.354Z,88.30
2019-05-10T15:42:38.465Z,90.40
2019-05-10T15:45:12.250Z,84.80
2019-05-10T15:47:50.781Z,87.80
2019-05-10T15:50:09.771Z,89.00
2019-05-10T15:52:39.469Z,88.00
2019-05-10T15:55:09.171Z,90.50
2019-05-10T15:57:37.884Z,90.70
2019-05-10T16:00:08.217Z,91.50
2019-05-10T16:02:37.000Z,91.50
2019-05-10T16:05:23.231Z,90.80
2019-05-10T16:07:39.414Z,91.20
2019-05-10T16:10:08.342Z,91.00
2019-05-10T16:12:37.882Z,91.30
2019-05-10T16:15:13.538Z,91.80
2019-05-10T16:17:38.612Z,92.10
2019-05-10T16:20:08.395Z,92.30
2019-05-10T16:22:37.184Z,92.20
2019-05-10T16:25:06.624Z,92.30
2019-05-10T16:27:41.641Z,92.60
2019-05-10T16:30:12.023Z,92.50
2019-05-10T16:32:39.375Z,93.40
2019-05-10T16:35:12.504Z,92.10
2019-05-10T16:37:38.604Z,92.20
2019-05-10T16:40:08.030Z,92.10
2019-05-10T16:42:36.788Z,93.00
2019-05-10T16:45:07.034Z,93.00
2019-05-10T16:47:37.368Z,92.80
2019-05-10T16:50:07.416Z,93.00
2019-05-10T16:52:36.166Z,92.80
2019-05-10T16:55:09.616Z,93.00
2019-05-10T16:57:39.326Z,93.10
2019-05-10T17:00:10.682Z,94.20
2019-05-10T17:02:42.198Z,95.00
2019-05-10T17:05:15.139Z,94.10
2019-05-10T17:07:40.828Z,93.90
2019-05-10T17:10:10.340Z,94.10
2019-05-10T17:12:39.167Z,94.00
2019-05-10T17:15:08.401Z,93.60
2019-05-10T17:17:39.154Z,93.10
2019-05-10T17:20:14.020Z,93.30
2019-05-10T17:22:39.130Z,92.50
2019-05-10T17:25:09.670Z,92.10
2019-05-10T17:27:38.518Z,91.90
2019-05-10T17:30:07.960Z,92.10
2019-05-10T17:32:38.647Z,93.40
2019-05-10T17:35:08.612Z,93.70
2019-05-10T17:37:37.612Z,94.20
2019-05-10T17:40:12.132Z,94.00
2019-05-10T17:42:41.770Z,95.80
2019-05-10T17:45:10.450Z,97.60
2019-05-10T17:47:39.396Z,98.80
2019-05-10T17:50:08.619Z,99.50
2019-05-10T17:52:37.440Z,99.90
2019-05-10T17:55:10.767Z,99.90
2019-05-10T17:57:38.655Z,99.90
2019-05-10T18:00:10.526Z,99.90
2019-05-10T18:02:39.412Z,99.90
2019-05-10T18:05:08.641Z,99.90
2019-05-10T18:07:38.420Z,99.90
2019-05-10T18:10:08.884Z,99.90
2019-05-10T18:12:37.672Z,99.90
2019-05-10T18:15:08.087Z,99.90
2019-05-10T18:17:36.849Z,99.90
2019-05-10T18:20:06.298Z,99.90
2019-05-10T18:22:43.476Z,99.90
2019-05-10T18:25:06.769Z,99.90
2019-05-10T18:27:35.511Z,99.90
2019-05-10T18:30:05.208Z,99.90
2019-05-10T18:32:35.731Z,99.90
2019-05-10T18:35:14.788Z,99.90
2019-05-10T18:37:39.016Z,99.90
2019-05-10T18:40:08.226Z,99.90
2019-05-10T18:42:38.017Z,99.90
2019-05-10T18:45:07.586Z,99.90
2019-05-10T18:47:36.333Z,99.90
2019-05-10T18:50:06.191Z,99.90
2019-05-10T18:52:34.954Z,99.90
2019-05-10T18:55:04.086Z,99.90
2019-05-10T18:57:34.510Z,99.90
2019-05-10T19:00:03.543Z,99.90
2019-05-10T19:02:32.568Z,99.90
2019-05-10T19:05:01.317Z,99.90
2019-05-10T19:07:30.138Z,99.90
2019-05-10T19:09:58.873Z,99.90
2019-05-10T19:12:27.845Z,99.90
2019-05-10T19:15:02.184Z,99.90
2019-05-10T19:17:27.312Z,99.90
2019-05-10T19:19:56.044Z,99.90
2019-05-10T19:22:24.839Z,99.90
2019-05-10T19:24:56.845Z,99.90
2019-05-10T19:27:25.190Z,99.90
2019-05-10T19:29:54.080Z,99.90
2019-05-10T19:32:22.926Z,99.90
2019-05-10T19:34:57.245Z,99.90
2019-05-10T19:37:31.385Z,99.90
2019-05-10T19:39:52.646Z,99.90
2019-05-10T19:42:21.452Z,99.90
2019-05-10T19:44:50.831Z,99.90
2019-05-10T19:47:20.082Z,99.90
2019-05-10T19:49:51.734Z,99.90
2019-05-10T19:52:21.377Z,99.90
2019-05-10T19:54:49.851Z,99.90
2019-05-10T19:57:18.914Z,99.90
2019-05-10T19:59:48.653Z,99.90
2019-05-10T20:02:19.470Z,99.90
2019-05-10T20:04:48.263Z,99.90
2019-05-10T20:07:17.029Z,99.90
2019-05-10T20:09:45.855Z,99.90
2019-05-10T20:12:14.594Z,99.90
2019-05-10T20:14:44.664Z,99.90
2019-05-10T20:17:13.534Z,99.90
2019-05-10T20:19:42.649Z,99.90
2019-05-10T20:22:11.440Z,99.90
2019-05-10T20:24:40.180Z,99.90
2019-05-10T20:27:08.939Z,99.90
2019-05-10T20:29:37.745Z,99.90
2019-05-10T20:32:06.580Z,99.90
2019-05-10T20:34:35.548Z,99.90
2019-05-10T20:37:04.565Z,99.90
2019-05-10T20:39:33.393Z,99.90
2019-05-10T20:42:02.192Z,99.90
2019-05-10T20:44:30.961Z,99.90
2019-05-10T20:46:59.678Z,99.90
2019-05-10T20:49:28.486Z,99.90
2019-05-10T20:51:57.335Z,99.90
2019-05-10T20:54:26.050Z,99.90
2019-05-10T20:56:55.046Z,99.90
2019-05-10T20:59:23.840Z,99.90
2019-05-10T21:01:52.599Z,99.90
2019-05-10T21:04:21.346Z,99.90
2019-05-10T21:06:50.161Z,99.90
2019-05-10T21:09:18.985Z,99.90
2019-05-10T21:11:47.741Z,99.90
2019-05-10T21:14:16.473Z,99.90
2019-05-10T21:16:45.239Z,99.90
2019-05-10T21:19:13.976Z,99.90
2019-05-10T21:21:42.724Z,99.90
2019-05-10T21:24:11.520Z,99.90
2019-05-10T21:26:41.178Z,99.90
2019-05-10T21:29:09.903Z,99.90
2019-05-10T21:31:38.621Z,99.90
2019-05-10T21:34:10.007Z,99.90
2019-05-10T21:36:37.830Z,99.90
2019-05-10T21:39:07.419Z,99.90
2019-05-10T21:41:36.238Z,99.90
2019-05-10T21:44:05.006Z,99.90
2019-05-10T21:46:34.040Z,99.90
2019-05-10T21:49:02.893Z,99.90
2019-05-10T21:51:31.683Z,99.90
2019-05-10T21:54:00.445Z,99.90
2019-05-10T21:56:29.215Z,99.90
2019-05-10T21:58:57.938Z,99.90
2019-05-10T22:01:26.761Z,99.90
2019-05-10T22:03:55.554Z,99.90
2019-05-10T22:06:24.279Z,99.90
2019-05-10T22:08:53.023Z,99.90
2019-05-10T22:11:21.745Z,99.90
2019-05-10T22:13:50.469Z,99.90
2019-05-10T22:16:20.597Z,99.90
2019-05-10T22:18:50.956Z,99.90
2019-05-10T22:21:19.793Z,99.90
2019-05-10T22:23:48.505Z,99.90
2019-05-10T22:26:17.234Z,99.90
2019-05-10T22:28:45.970Z,99.90
2019-05-10T22:31:14.800Z,99.90
2019-05-10T22:33:43.622Z,99.90
2019-05-10T22:36:12.347Z,99.90
2019-05-10T22:38:41.175Z,99.90
2019-05-10T22:41:09.833Z,99.90
2019-05-10T22:43:38.626Z,99.90
2019-05-10T22:46:09.336Z,99.90
2019-05-10T22:48:37.764Z,99.90
2019-05-10T22:51:06.547Z,99.90
2019-05-10T22:53:35.248Z,99.90
2019-05-10T22:56:04.066Z,99.90
2019-05-10T22:58:32.882Z,99.90
2019-05-10T23:01:01.670Z,99.90
2019-05-10T23:03:30.423Z,99.90
2019-05-10T23:05:59.162Z,99.90
2019-05-10T23:08:27.957Z,99.90
2019-05-10T23:10:56.834Z,99.90
2019-05-10T23:13:25.618Z,99.90
2019-05-10T23:15:54.418Z,99.90
2019-05-10T23:18:23.210Z,99.90
2019-05-10T23:20:52.037Z,99.90
2019-05-10T23:23:21.125Z,99.90
2019-05-10T23:25:50.254Z,99.90
2019-05-10T23:28:19.072Z,99.90
2019-05-10T23:30:47.866Z,99.90
2019-05-10T23:33:16.667Z,99.90
2019-05-10T23:35:45.420Z,99.90
2019-05-10T23:38:14.210Z,99.90
2019-05-10T23:40:42.946Z,99.90
2019-05-10T23:43:11.694Z,99.90
2019-05-10T23:45:40.420Z,99.90
2019-05-10T23:48:09.153Z,99.90
2019-05-10T23:50:37.912Z,99.90
2019-05-10T23:53:06.637Z,99.90
2019-05-10T23:55:35.469Z,99.90
2019-05-10T23:58:04.218Z,99.90
